sensor_id;sensor_type;location;lat;lon;timestamp;temperature;humidity
53653;DHT22;39553;52.954;5.932;2023-02-08T00:00:49;-3.00;99.90
53653;DHT22;39553;52.954;5.932;2023-02-08T00:03:15;-3.90;99.90
53653;DHT22;39553;52.954;5.932;2023-02-08T00:05:41;-3.20;99.90
53653;DHT22;39553;52.954;5.932;2023-02-08T00:08:07;-0.70;99.90
53653;DHT22;39553;52.954;5.932;2023-02-08T00:10:33;-0.40;99.90
53653;DHT22;39553;52.954;5.932;2023-02-08T00:12:59;-3.00;99.90
53653;DHT22;39553;52.954;5.932;2023-02-08T00:15:24;-3.00;99.90
53653;DHT22;39553;52.954;5.932;2023-02-08T00:17:50;-2.90;99.90
53653;DHT22;39553;52.954;5.932;2023-02-08T00:20:17;-0.70;99.90
53653;DHT22;39553;52.954;5.932;2023-02-08T00:22:42;-3.30;99.90
53653;DHT22;39553;52.954;5.932;2023-02-08T00:25:09;-3.00;99.90
53653;DHT22;39553;52.954;5.932;2023-02-08T00:27:35;-3.00;99.90
53653;DHT22;39553;52.954;5.932;2023-02-08T00:30:07;-2.50;99.90
53653;DHT22;39553;52.954;5.932;2023-02-08T00:32:33;-3.00;99.90
53653;DHT22;39553;52.954;5.932;2023-02-08T00:34:59;-3.10;99.90
53653;DHT22;39553;52.954;5.932;2023-02-08T00:37:25;-3.10;99.90
53653;DHT22;39553;52.954;5.932;2023-02-08T00:39:50;-3.00;99.90
53653;DHT22;39553;52.954;5.932;2023-02-08T00:42:16;-1.60;99.90
53653;DHT22;39553;52.954;5.932;2023-02-08T00:44:42;-3.10;99.90
53653;DHT22;39553;52.954;5.932;2023-02-08T00:47:08;-2.80;99.90
53653;DHT22;39553;52.954;5.932;2023-02-08T00:49:33;-3.10;99.90
53653;DHT22;39553;52.954;5.932;2023-02-08T00:51:59;-3.30;99.90
53653;DHT22;39553;52.954;5.932;2023-02-08T00:54:25;-2.30;99.90
53653;DHT22;39553;52.954;5.932;2023-02-08T00:56:50;-3.10;99.90
53653;DHT22;39553;52.954;5.932;2023-02-08T00:59:16;-3.30;99.90
53653;DHT22;39553;52.954;5.932;2023-02-08T01:01:42;-0.10;99.90
53653;DHT22;39553;52.954;5.932;2023-02-08T01:04:07;-3.00;99.90
53653;DHT22;39553;52.954;5.932;2023-02-08T01:06:34;-3.10;99.90
53653;DHT22;39553;52.954;5.932;2023-02-08T01:09:02;-3.00;99.90
53653;DHT22;39553;52.954;5.932;2023-02-08T01:11:29;-1.30;99.90
53653;DHT22;39553;52.954;5.932;2023-02-08T01:13:56;-2.30;99.90
53653;DHT22;39553;52.954;5.932;2023-02-08T01:16:27;-3.10;99.90
53653;DHT22;39553;52.954;5.932;2023-02-08T01:18:55;-3.00;99.90
53653;DHT22;39553;52.954;5.932;2023-02-08T01:21:27;-3.20;99.90
53653;DHT22;39553;52.954;5.932;2023-02-08T01:23:53;-2.60;99.90
53653;DHT22;39553;52.954;5.932;2023-02-08T01:26:23;-2.90;99.90
53653;DHT22;39553;52.954;5.932;2023-02-08T01:28:49;-0.50;99.90
53653;DHT22;39553;52.954;5.932;2023-02-08T01:31:18;-1.20;99.90
53653;DHT22;39553;52.954;5.932;2023-02-08T01:33:48;-3.10;99.90
53653;DHT22;39553;52.954;5.932;2023-02-08T01:36:14;-0.70;99.90
53653;DHT22;39553;52.954;5.932;2023-02-08T01:38:41;-3.00;99.90
53653;DHT22;39553;52.954;5.932;2023-02-08T01:41:13;-2.80;99.90
53653;DHT22;39553;52.954;5.932;2023-02-08T01:46:35;-2.70;99.90
53653;DHT22;39553;52.954;5.932;2023-02-08T01:49:09;-1.40;99.90
53653;DHT22;39553;52.954;5.932;2023-02-08T01:51:39;-2.70;99.90
53653;DHT22;39553;52.954;5.932;2023-02-08T01:54:08;-2.00;99.90
53653;DHT22;39553;52.954;5.932;2023-02-08T01:56:38;-0.80;99.90
53653;DHT22;39553;52.954;5.932;2023-02-08T01:59:09;-3.00;99.90
53653;DHT22;39553;52.954;5.932;2023-02-08T02:01:37;-2.80;99.90
53653;DHT22;39553;52.954;5.932;2023-02-08T02:04:06;-2.90;99.90
53653;DHT22;39553;52.954;5.932;2023-02-08T02:06:37;-2.90;99.90
53653;DHT22;39553;52.954;5.932;2023-02-08T02:11:58;-2.70;99.90
53653;DHT22;39553;52.954;5.932;2023-02-08T02:14:24;-1.70;99.90
53653;DHT22;39553;52.954;5.932;2023-02-08T02:16:50;-0.70;99.90
53653;DHT22;39553;52.954;5.932;2023-02-08T02:24:52;-2.70;99.90
53653;DHT22;39553;52.954;5.932;2023-02-08T02:32:41;-2.60;99.90
53653;DHT22;39553;52.954;5.932;2023-02-08T02:35:48;-2.60;99.90
53653;DHT22;39553;52.954;5.932;2023-02-08T02:41:24;-2.60;99.90
53653;DHT22;39553;52.954;5.932;2023-02-08T02:44:35;-2.70;99.90
53653;DHT22;39553;52.954;5.932;2023-02-08T02:47:30;-2.70;99.90
53653;DHT22;39553;52.954;5.932;2023-02-08T02:49:59;-1.80;99.90
53653;DHT22;39553;52.954;5.932;2023-02-08T02:52:59;-2.50;99.90
53653;DHT22;39553;52.954;5.932;2023-02-08T02:55:28;-2.80;99.90
53653;DHT22;39553;52.954;5.932;2023-02-08T02:57:56;-2.90;99.90
53653;DHT22;39553;52.954;5.932;2023-02-08T03:00:25;-3.20;99.90
53653;DHT22;39553;52.954;5.932;2023-02-08T03:02:52;-2.90;99.90
53653;DHT22;39553;52.954;5.932;2023-02-08T03:05:21;-1.20;99.90
53653;DHT22;39553;52.954;5.932;2023-02-08T03:11:13;-3.00;99.90
53653;DHT22;39553;52.954;5.932;2023-02-08T03:19:35;-3.00;99.90
53653;DHT22;39553;52.954;5.932;2023-02-08T03:30:17;-3.10;99.90
53653;DHT22;39553;52.954;5.932;2023-02-08T03:33:05;-3.20;99.90
53653;DHT22;39553;52.954;5.932;2023-02-08T03:36:03;-3.30;99.90
53653;DHT22;39553;52.954;5.932;2023-02-08T03:38:37;-3.40;99.90
53653;DHT22;39553;52.954;5.932;2023-02-08T03:41:06;-3.00;99.90
53653;DHT22;39553;52.954;5.932;2023-02-08T03:43:36;-3.10;99.90
53653;DHT22;39553;52.954;5.932;2023-02-08T03:46:24;-3.10;99.90
53653;DHT22;39553;52.954;5.932;2023-02-08T03:49:16;-3.00;99.90
53653;DHT22;39553;52.954;5.932;2023-02-08T03:51:45;-3.00;99.90
53653;DHT22;39553;52.954;5.932;2023-02-08T03:54:15;-3.00;99.90
53653;DHT22;39553;52.954;5.932;2023-02-08T03:56:53;-3.00;99.90
53653;DHT22;39553;52.954;5.932;2023-02-08T03:59:24;-2.80;99.90
53653;DHT22;39553;52.954;5.932;2023-02-08T04:01:59;-3.20;99.90
53653;DHT22;39553;52.954;5.932;2023-02-08T04:04:28;-1.00;99.90
53653;DHT22;39553;52.954;5.932;2023-02-08T04:06:55;-3.10;99.90
53653;DHT22;39553;52.954;5.932;2023-02-08T04:09:21;-3.00;99.90
53653;DHT22;39553;52.954;5.932;2023-02-08T04:11:46;-3.00;99.90
53653;DHT22;39553;52.954;5.932;2023-02-08T04:14:12;-3.00;99.90
53653;DHT22;39553;52.954;5.932;2023-02-08T04:16:38;-2.60;99.90
53653;DHT22;39553;52.954;5.932;2023-02-08T04:19:04;-3.00;99.90
53653;DHT22;39553;52.954;5.932;2023-02-08T04:21:29;-2.30;99.90
53653;DHT22;39553;52.954;5.932;2023-02-08T04:23:55;-3.10;99.90
53653;DHT22;39553;52.954;5.932;2023-02-08T04:26:21;-1.80;99.90
53653;DHT22;39553;52.954;5.932;2023-02-08T04:28:47;-3.10;99.90
53653;DHT22;39553;52.954;5.932;2023-02-08T04:31:12;-1.30;99.90
53653;DHT22;39553;52.954;5.932;2023-02-08T04:33:38;-3.10;99.90
53653;DHT22;39553;52.954;5.932;2023-02-08T04:36:06;-3.30;99.90
53653;DHT22;39553;52.954;5.932;2023-02-08T04:38:32;-3.10;99.90
53653;DHT22;39553;52.954;5.932;2023-02-08T04:40:58;-0.40;99.90
53653;DHT22;39553;52.954;5.932;2023-02-08T04:43:23;-2.30;99.90
53653;DHT22;39553;52.954;5.932;2023-02-08T04:45:50;-2.40;99.90
53653;DHT22;39553;52.954;5.932;2023-02-08T04:48:16;-3.40;99.90
53653;DHT22;39553;52.954;5.932;2023-02-08T04:50:42;-1.00;99.90
53653;DHT22;39553;52.954;5.932;2023-02-08T04:53:08;-2.70;99.90
53653;DHT22;39553;52.954;5.932;2023-02-08T04:55:33;-0.90;99.90
53653;DHT22;39553;52.954;5.932;2023-02-08T04:57:59;-3.30;99.90
53653;DHT22;39553;52.954;5.932;2023-02-08T05:00:25;-0.90;99.90
53653;DHT22;39553;52.954;5.932;2023-02-08T05:02:53;-0.80;99.90
53653;DHT22;39553;52.954;5.932;2023-02-08T05:07:45;-3.10;99.90
53653;DHT22;39553;52.954;5.932;2023-02-08T05:10:11;-1.20;99.90
53653;DHT22;39553;52.954;5.932;2023-02-08T05:12:37;-1.50;99.90
53653;DHT22;39553;52.954;5.932;2023-02-08T05:15:03;-3.20;99.90
53653;DHT22;39553;52.954;5.932;2023-02-08T05:17:29;-2.80;99.90
53653;DHT22;39553;52.954;5.932;2023-02-08T05:19:55;-1.10;99.90
53653;DHT22;39553;52.954;5.932;2023-02-08T05:22:21;-2.80;99.90
53653;DHT22;39553;52.954;5.932;2023-02-08T05:24:47;-3.00;99.90
53653;DHT22;39553;52.954;5.932;2023-02-08T05:27:13;-3.10;99.90
53653;DHT22;39553;52.954;5.932;2023-02-08T05:29:38;-2.80;99.90
53653;DHT22;39553;52.954;5.932;2023-02-08T05:32:04;-0.90;99.90
53653;DHT22;39553;52.954;5.932;2023-02-08T05:34:30;-0.50;99.90
53653;DHT22;39553;52.954;5.932;2023-02-08T05:36:56;-3.60;99.90
53653;DHT22;39553;52.954;5.932;2023-02-08T05:39:22;-1.00;99.90
53653;DHT22;39553;52.954;5.932;2023-02-08T05:41:48;-0.70;99.90
53653;DHT22;39553;52.954;5.932;2023-02-08T05:44:14;-0.80;99.90
53653;DHT22;39553;52.954;5.932;2023-02-08T05:46:40;-1.30;99.90
53653;DHT22;39553;52.954;5.932;2023-02-08T05:49:06;-3.00;99.90
53653;DHT22;39553;52.954;5.932;2023-02-08T05:51:32;0.10;99.90
53653;DHT22;39553;52.954;5.932;2023-02-08T05:53:58;-0.50;99.90
53653;DHT22;39553;52.954;5.932;2023-02-08T05:56:24;-1.30;99.90
53653;DHT22;39553;52.954;5.932;2023-02-08T05:58:50;-2.60;99.90
53653;DHT22;39553;52.954;5.932;2023-02-08T06:01:18;-3.10;99.90
53653;DHT22;39553;52.954;5.932;2023-02-08T06:03:47;-4.00;99.90
53653;DHT22;39553;52.954;5.932;2023-02-08T06:06:13;-1.10;99.90
53653;DHT22;39553;52.954;5.932;2023-02-08T06:08:39;-0.70;99.90
53653;DHT22;39553;52.954;5.932;2023-02-08T06:11:05;-1.20;99.90
53653;DHT22;39553;52.954;5.932;2023-02-08T06:13:31;-1.50;99.90
53653;DHT22;39553;52.954;5.932;2023-02-08T06:15:57;-0.60;99.90
53653;DHT22;39553;52.954;5.932;2023-02-08T06:18:23;-2.20;99.90
53653;DHT22;39553;52.954;5.932;2023-02-08T06:20:53;-2.60;99.90
53653;DHT22;39553;52.954;5.932;2023-02-08T06:23:20;-1.50;99.90
53653;DHT22;39553;52.954;5.932;2023-02-08T06:25:46;-2.10;99.90
53653;DHT22;39553;52.954;5.932;2023-02-08T06:28:11;-1.00;99.90
53653;DHT22;39553;52.954;5.932;2023-02-08T06:30:37;-5.00;99.90
53653;DHT22;39553;52.954;5.932;2023-02-08T06:33:04;-2.90;99.90
53653;DHT22;39553;52.954;5.932;2023-02-08T06:35:30;-1.00;99.90
53653;DHT22;39553;52.954;5.932;2023-02-08T06:37:57;1.10;99.90
53653;DHT22;39553;52.954;5.932;2023-02-08T06:40:23;-0.50;99.90
53653;DHT22;39553;52.954;5.932;2023-02-08T06:42:49;-1.00;99.90
53653;DHT22;39553;52.954;5.932;2023-02-08T06:45:16;-0.90;99.90
53653;DHT22;39553;52.954;5.932;2023-02-08T06:47:42;-0.30;99.90
53653;DHT22;39553;52.954;5.932;2023-02-08T06:50:09;-2.80;99.90
53653;DHT22;39553;52.954;5.932;2023-02-08T06:52:36;-2.60;99.90
53653;DHT22;39553;52.954;5.932;2023-02-08T06:55:02;-2.90;99.90
53653;DHT22;39553;52.954;5.932;2023-02-08T06:57:28;-2.60;99.90
53653;DHT22;39553;52.954;5.932;2023-02-08T06:59:57;-2.50;99.90
53653;DHT22;39553;52.954;5.932;2023-02-08T07:02:23;0.20;99.90
53653;DHT22;39553;52.954;5.932;2023-02-08T07:04:49;-2.80;99.90
53653;DHT22;39553;52.954;5.932;2023-02-08T07:07:16;-2.20;99.90
53653;DHT22;39553;52.954;5.932;2023-02-08T07:09:44;-0.30;99.90
53653;DHT22;39553;52.954;5.932;2023-02-08T07:12:11;0.00;99.90
53653;DHT22;39553;52.954;5.932;2023-02-08T07:14:43;-2.50;99.90
53653;DHT22;39553;52.954;5.932;2023-02-08T07:17:10;-2.60;99.90
53653;DHT22;39553;52.954;5.932;2023-02-08T07:19:40;-4.80;99.90
53653;DHT22;39553;52.954;5.932;2023-02-08T07:22:07;-2.60;99.90
53653;DHT22;39553;52.954;5.932;2023-02-08T07:24:37;-1.60;99.90
53653;DHT22;39553;52.954;5.932;2023-02-08T07:27:11;-0.80;99.90
53653;DHT22;39553;52.954;5.932;2023-02-08T07:29:38;-1.30;99.90
53653;DHT22;39553;52.954;5.932;2023-02-08T07:32:05;0.00;99.90
53653;DHT22;39553;52.954;5.932;2023-02-08T07:34:37;-2.90;99.90
53653;DHT22;39553;52.954;5.932;2023-02-08T07:37:05;-2.00;99.90
53653;DHT22;39553;52.954;5.932;2023-02-08T07:39:34;-1.10;99.90
53653;DHT22;39553;52.954;5.932;2023-02-08T07:42:00;-0.80;99.90
53653;DHT22;39553;52.954;5.932;2023-02-08T07:44:26;-2.40;99.90
53653;DHT22;39553;52.954;5.932;2023-02-08T07:46:55;0.80;99.90
53653;DHT22;39553;52.954;5.932;2023-02-08T07:49:21;0.00;99.90
53653;DHT22;39553;52.954;5.932;2023-02-08T07:51:47;-1.90;99.90
53653;DHT22;39553;52.954;5.932;2023-02-08T07:54:13;-2.20;99.90
53653;DHT22;39553;52.954;5.932;2023-02-08T07:56:39;-1.20;99.90
53653;DHT22;39553;52.954;5.932;2023-02-08T07:59:05;-2.00;99.90
53653;DHT22;39553;52.954;5.932;2023-02-08T08:01:32;-1.20;99.90
53653;DHT22;39553;52.954;5.932;2023-02-08T08:03:58;-2.40;99.90
53653;DHT22;39553;52.954;5.932;2023-02-08T08:06:24;-2.50;99.90
53653;DHT22;39553;52.954;5.932;2023-02-08T08:11:18;-2.30;99.90
53653;DHT22;39553;52.954;5.932;2023-02-08T08:13:44;-0.20;99.90
53653;DHT22;39553;52.954;5.932;2023-02-08T08:16:10;-4.10;99.90
53653;DHT22;39553;52.954;5.932;2023-02-08T08:18:36;-1.70;99.90
53653;DHT22;39553;52.954;5.932;2023-02-08T08:21:03;0.40;99.90
53653;DHT22;39553;52.954;5.932;2023-02-08T08:25:58;-2.20;99.90
53653;DHT22;39553;52.954;5.932;2023-02-08T08:28:24;-1.90;99.90
53653;DHT22;39553;52.954;5.932;2023-02-08T08:30:50;0.60;99.90
53653;DHT22;39553;52.954;5.932;2023-02-08T08:33:16;0.50;99.90
53653;DHT22;39553;52.954;5.932;2023-02-08T08:35:42;0.30;99.90
53653;DHT22;39553;52.954;5.932;2023-02-08T08:38:09;-1.70;99.90
53653;DHT22;39553;52.954;5.932;2023-02-08T08:40:35;0.40;99.90
53653;DHT22;39553;52.954;5.932;2023-02-08T08:43:01;-1.50;99.90
53653;DHT22;39553;52.954;5.932;2023-02-08T08:45:26;0.40;99.90
53653;DHT22;39553;52.954;5.932;2023-02-08T08:47:52;1.00;99.90
53653;DHT22;39553;52.954;5.932;2023-02-08T08:50:18;-1.00;99.90
53653;DHT22;39553;52.954;5.932;2023-02-08T08:52:44;-1.30;99.90
53653;DHT22;39553;52.954;5.932;2023-02-08T08:55:09;-0.90;99.90
53653;DHT22;39553;52.954;5.932;2023-02-08T08:57:38;1.60;99.90
53653;DHT22;39553;52.954;5.932;2023-02-08T09:00:04;-1.30;99.90
53653;DHT22;39553;52.954;5.932;2023-02-08T09:02:30;-0.80;99.90
53653;DHT22;39553;52.954;5.932;2023-02-08T09:04:56;-0.70;99.90
53653;DHT22;39553;52.954;5.932;2023-02-08T09:07:24;-0.40;99.90
53653;DHT22;39553;52.954;5.932;2023-02-08T09:09:50;-0.20;99.90
53653;DHT22;39553;52.954;5.932;2023-02-08T09:12:20;2.80;99.90
53653;DHT22;39553;52.954;5.932;2023-02-08T09:14:45;1.90;99.90
53653;DHT22;39553;52.954;5.932;2023-02-08T09:17:14;2.80;99.90
53653;DHT22;39553;52.954;5.932;2023-02-08T09:19:41;3.50;99.90
53653;DHT22;39553;52.954;5.932;2023-02-08T09:22:07;4.20;99.90
53653;DHT22;39553;52.954;5.932;2023-02-08T09:24:33;4.80;99.90
53653;DHT22;39553;52.954;5.932;2023-02-08T09:26:59;5.60;99.90
53653;DHT22;39553;52.954;5.932;2023-02-08T09:29:25;5.60;99.90
53653;DHT22;39553;52.954;5.932;2023-02-08T09:31:54;5.80;99.90
53653;DHT22;39553;52.954;5.932;2023-02-08T09:34:21;6.10;99.90
53653;DHT22;39553;52.954;5.932;2023-02-08T09:36:47;6.30;99.90
53653;DHT22;39553;52.954;5.932;2023-02-08T09:39:16;6.40;99.90
53653;DHT22;39553;52.954;5.932;2023-02-08T09:47:32;7.10;99.90
53653;DHT22;39553;52.954;5.932;2023-02-08T09:55:55;7.70;99.90
53653;DHT22;39553;52.954;5.932;2023-02-08T09:58:39;7.80;99.90
53653;DHT22;39553;52.954;5.932;2023-02-08T10:01:32;7.80;99.90
53653;DHT22;39553;52.954;5.932;2023-02-08T10:04:06;7.80;99.90
53653;DHT22;39553;52.954;5.932;2023-02-08T10:06:33;8.20;99.90
53653;DHT22;39553;52.954;5.932;2023-02-08T10:09:03;8.10;99.90
53653;DHT22;39553;52.954;5.932;2023-02-08T10:14:23;8.30;99.90
53653;DHT22;39553;52.954;5.932;2023-02-08T10:20:42;8.40;99.90
53653;DHT22;39553;52.954;5.932;2023-02-08T10:23:21;8.30;99.90
53653;DHT22;39553;52.954;5.932;2023-02-08T10:26:03;8.20;99.90
53653;DHT22;39553;52.954;5.932;2023-02-08T10:29:22;8.30;99.90
53653;DHT22;39553;52.954;5.932;2023-02-08T10:35:13;8.20;99.90
53653;DHT22;39553;52.954;5.932;2023-02-08T10:37:42;8.10;99.90
53653;DHT22;39553;52.954;5.932;2023-02-08T10:42:51;6.40;99.90
53653;DHT22;39553;52.954;5.932;2023-02-08T10:45:29;7.00;99.90
53653;DHT22;39553;52.954;5.932;2023-02-08T10:48:01;7.00;99.90
53653;DHT22;39553;52.954;5.932;2023-02-08T10:50:36;7.00;99.90
53653;DHT22;39553;52.954;5.932;2023-02-08T10:53:04;7.20;99.90
53653;DHT22;39553;52.954;5.932;2023-02-08T10:55:40;7.20;99.90
53653;DHT22;39553;52.954;5.932;2023-02-08T10:58:15;6.70;99.90
53653;DHT22;39553;52.954;5.932;2023-02-08T11:00:42;6.40;99.90
53653;DHT22;39553;52.954;5.932;2023-02-08T11:05:43;5.80;99.90
53653;DHT22;39553;52.954;5.932;2023-02-08T11:08:15;5.70;99.90
53653;DHT22;39553;52.954;5.932;2023-02-08T11:11:08;5.90;99.90
53653;DHT22;39553;52.954;5.932;2023-02-08T11:13:38;5.70;99.90
53653;DHT22;39553;52.954;5.932;2023-02-08T11:16:23;5.70;99.90
53653;DHT22;39553;52.954;5.932;2023-02-08T11:18:55;5.60;99.90
53653;DHT22;39553;52.954;5.932;2023-02-08T11:21:27;5.60;99.90
53653;DHT22;39553;52.954;5.932;2023-02-08T11:23:56;5.50;99.90
53653;DHT22;39553;52.954;5.932;2023-02-08T11:26:35;5.40;99.90
53653;DHT22;39553;52.954;5.932;2023-02-08T11:29:14;5.80;99.90
53653;DHT22;39553;52.954;5.932;2023-02-08T11:32:00;6.30;99.90
53653;DHT22;39553;52.954;5.932;2023-02-08T11:34:31;6.00;99.80
53653;DHT22;39553;52.954;5.932;2023-02-08T11:37:04;5.70;99.90
53653;DHT22;39553;52.954;5.932;2023-02-08T11:39:38;5.50;99.90
53653;DHT22;39553;52.954;5.932;2023-02-08T11:42:20;5.60;99.90
53653;DHT22;39553;52.954;5.932;2023-02-08T11:44:47;5.70;99.90
53653;DHT22;39553;52.954;5.932;2023-02-08T11:47:16;5.70;99.90
53653;DHT22;39553;52.954;5.932;2023-02-08T11:49:45;5.90;99.90
53653;DHT22;39553;52.954;5.932;2023-02-08T11:52:29;6.00;99.90
53653;DHT22;39553;52.954;5.932;2023-02-08T11:57:58;5.70;99.00
53653;DHT22;39553;52.954;5.932;2023-02-08T12:00:27;5.90;99.20
53653;DHT22;39553;52.954;5.932;2023-02-08T12:02:59;6.20;99.60
53653;DHT22;39553;52.954;5.932;2023-02-08T12:08:34;6.20;98.70
53653;DHT22;39553;52.954;5.932;2023-02-08T12:17:10;6.50;97.80
53653;DHT22;39553;52.954;5.932;2023-02-08T12:19:47;6.40;98.60
53653;DHT22;39553;52.954;5.932;2023-02-08T12:41:20;8.20;98.00
53653;DHT22;39553;52.954;5.932;2023-02-08T12:47:03;8.00;96.50
53653;DHT22;39553;52.954;5.932;2023-02-08T12:49:55;7.90;96.10
53653;DHT22;39553;52.954;5.932;2023-02-08T12:55:33;7.90;94.80
53653;DHT22;39553;52.954;5.932;2023-02-08T12:58:32;8.00;95.10
53653;DHT22;39553;52.954;5.932;2023-02-08T13:01:18;7.90;91.90
53653;DHT22;39553;52.954;5.932;2023-02-08T13:04:15;7.80;94.70
53653;DHT22;39553;52.954;5.932;2023-02-08T13:06:47;7.90;92.90
53653;DHT22;39553;52.954;5.932;2023-02-08T13:09:21;8.00;93.50
53653;DHT22;39553;52.954;5.932;2023-02-08T13:12:03;7.90;93.10
53653;DHT22;39553;52.954;5.932;2023-02-08T13:14:42;7.70;92.90
53653;DHT22;39553;52.954;5.932;2023-02-08T13:22:33;8.10;91.10
53653;DHT22;39553;52.954;5.932;2023-02-08T13:25:01;7.80;91.80
53653;DHT22;39553;52.954;5.932;2023-02-08T13:27:28;7.20;88.80
53653;DHT22;39553;52.954;5.932;2023-02-08T13:29:54;7.00;92.70
53653;DHT22;39553;52.954;5.932;2023-02-08T13:32:33;7.10;93.70
53653;DHT22;39553;52.954;5.932;2023-02-08T13:35:15;7.40;91.90
53653;DHT22;39553;52.954;5.932;2023-02-08T13:37:50;7.70;91.60
53653;DHT22;39553;52.954;5.932;2023-02-08T13:40:23;8.10;92.20
53653;DHT22;39553;52.954;5.932;2023-02-08T13:43:23;8.30;92.00
53653;DHT22;39553;52.954;5.932;2023-02-08T13:45:51;8.40;90.50
53653;DHT22;39553;52.954;5.932;2023-02-08T13:48:19;8.70;91.80
53653;DHT22;39553;52.954;5.932;2023-02-08T13:50:50;8.90;90.00
53653;DHT22;39553;52.954;5.932;2023-02-08T13:56:09;9.20;88.00
53653;DHT22;39553;52.954;5.932;2023-02-08T13:58:36;9.00;90.00
53653;DHT22;39553;52.954;5.932;2023-02-08T14:03:34;9.00;89.90
53653;DHT22;39553;52.954;5.932;2023-02-08T14:08:57;9.10;90.00
53653;DHT22;39553;52.954;5.932;2023-02-08T14:17:27;8.30;90.10
53653;DHT22;39553;52.954;5.932;2023-02-08T14:19:58;8.70;90.70
53653;DHT22;39553;52.954;5.932;2023-02-08T14:22:28;9.10;90.40
53653;DHT22;39553;52.954;5.932;2023-02-08T14:25:05;9.40;89.80
53653;DHT22;39553;52.954;5.932;2023-02-08T14:27:38;9.50;87.90
53653;DHT22;39553;52.954;5.932;2023-02-08T14:30:29;9.60;88.70
53653;DHT22;39553;52.954;5.932;2023-02-08T14:35:29;10.30;87.50
53653;DHT22;39553;52.954;5.932;2023-02-08T14:40:47;10.20;85.70
53653;DHT22;39553;52.954;5.932;2023-02-08T14:45:47;10.50;85.70
53653;DHT22;39553;52.954;5.932;2023-02-08T14:48:36;10.40;85.70
53653;DHT22;39553;52.954;5.932;2023-02-08T14:53:56;9.80;86.10
53653;DHT22;39553;52.954;5.932;2023-02-08T14:56:59;9.50;84.50
53653;DHT22;39553;52.954;5.932;2023-02-08T14:59:29;9.00;84.70
53653;DHT22;39553;52.954;5.932;2023-02-08T15:01:59;8.70;86.90
53653;DHT22;39553;52.954;5.932;2023-02-08T15:04:26;8.10;87.00
53653;DHT22;39553;52.954;5.932;2023-02-08T15:09:30;7.20;87.90
53653;DHT22;39553;52.954;5.932;2023-02-08T15:12:00;6.90;89.60
53653;DHT22;39553;52.954;5.932;2023-02-08T15:14:28;6.60;89.90
53653;DHT22;39553;52.954;5.932;2023-02-08T15:16:54;6.40;90.20
53653;DHT22;39553;52.954;5.932;2023-02-08T15:19:32;6.20;90.30
53653;DHT22;39553;52.954;5.932;2023-02-08T15:22:32;6.10;90.50
53653;DHT22;39553;52.954;5.932;2023-02-08T15:25:02;5.90;89.30
53653;DHT22;39553;52.954;5.932;2023-02-08T15:27:35;6.30;90.70
53653;DHT22;39553;52.954;5.932;2023-02-08T15:30:01;5.70;90.80
53653;DHT22;39553;52.954;5.932;2023-02-08T15:32:28;7.40;91.20
53653;DHT22;39553;52.954;5.932;2023-02-08T15:34:59;5.30;90.70
53653;DHT22;39553;52.954;5.932;2023-02-08T15:37:30;5.30;90.60
53653;DHT22;39553;52.954;5.932;2023-02-08T15:39:58;5.60;90.90
53653;DHT22;39553;52.954;5.932;2023-02-08T15:42:26;5.30;90.90
53653;DHT22;39553;52.954;5.932;2023-02-08T15:44:56;5.10;90.90
53653;DHT22;39553;52.954;5.932;2023-02-08T15:47:32;5.00;91.20
53653;DHT22;39553;52.954;5.932;2023-02-08T15:49:58;5.00;91.40
53653;DHT22;39553;52.954;5.932;2023-02-08T15:52:27;4.90;91.50
53653;DHT22;39553;52.954;5.932;2023-02-08T15:54:54;4.80;91.50
53653;DHT22;39553;52.954;5.932;2023-02-08T15:59:54;4.70;91.80
53653;DHT22;39553;52.954;5.932;2023-02-08T16:02:30;4.60;91.30
53653;DHT22;39553;52.954;5.932;2023-02-08T16:04:59;4.60;92.10
53653;DHT22;39553;52.954;5.932;2023-02-08T16:07:33;4.50;92.10
53653;DHT22;39553;52.954;5.932;2023-02-08T16:10:01;4.40;92.10
53653;DHT22;39553;52.954;5.932;2023-02-08T16:12:27;4.40;92.00
53653;DHT22;39553;52.954;5.932;2023-02-08T16:14:54;5.00;92.40
53653;DHT22;39553;52.954;5.932;2023-02-08T16:17:44;4.20;92.50
53653;DHT22;39553;52.954;5.932;2023-02-08T16:20:26;4.10;92.50
53653;DHT22;39553;52.954;5.932;2023-02-08T16:23:01;4.20;93.00
53653;DHT22;39553;52.954;5.932;2023-02-08T16:25:42;3.90;93.10
53653;DHT22;39553;52.954;5.932;2023-02-08T16:28:32;3.80;93.30
53653;DHT22;39553;52.954;5.932;2023-02-08T16:31:01;3.60;93.10
53653;DHT22;39553;52.954;5.932;2023-02-08T16:33:28;4.10;93.70
53653;DHT22;39553;52.954;5.932;2023-02-08T16:35:55;3.50;93.70
53653;DHT22;39553;52.954;5.932;2023-02-08T16:38:28;3.40;94.10
53653;DHT22;39553;52.954;5.932;2023-02-08T16:40:56;3.20;94.30
53653;DHT22;39553;52.954;5.932;2023-02-08T16:43:40;3.10;94.60
53653;DHT22;39553;52.954;5.932;2023-02-08T16:46:15;3.00;94.70
53653;DHT22;39553;52.954;5.932;2023-02-08T16:51:29;2.80;95.20
53653;DHT22;39553;52.954;5.932;2023-02-08T16:54:00;2.60;95.50
53653;DHT22;39553;52.954;5.932;2023-02-08T16:56:27;2.50;96.00
53653;DHT22;39553;52.954;5.932;2023-02-08T16:58:53;2.30;96.30
53653;DHT22;39553;52.954;5.932;2023-02-08T17:01:21;2.20;96.40
53653;DHT22;39553;52.954;5.932;2023-02-08T17:03:49;2.20;96.70
53653;DHT22;39553;52.954;5.932;2023-02-08T17:06:31;2.10;96.70
53653;DHT22;39553;52.954;5.932;2023-02-08T17:08:59;2.10;96.50
53653;DHT22;39553;52.954;5.932;2023-02-08T17:11:25;2.00;96.60
53653;DHT22;39553;52.954;5.932;2023-02-08T17:13:51;2.60;96.90
53653;DHT22;39553;52.954;5.932;2023-02-08T17:16:22;1.90;96.70
53653;DHT22;39553;52.954;5.932;2023-02-08T17:18:51;2.40;96.80
53653;DHT22;39553;52.954;5.932;2023-02-08T17:21:17;1.80;96.60
53653;DHT22;39553;52.954;5.932;2023-02-08T17:23:44;1.80;96.60
53653;DHT22;39553;52.954;5.932;2023-02-08T17:26:25;1.80;96.50
53653;DHT22;39553;52.954;5.932;2023-02-08T17:28:52;1.00;96.30
53653;DHT22;39553;52.954;5.932;2023-02-08T17:31:19;1.70;96.70
53653;DHT22;39553;52.954;5.932;2023-02-08T17:33:44;1.70;96.40
53653;DHT22;39553;52.954;5.932;2023-02-08T17:36:12;2.90;96.60
53653;DHT22;39553;52.954;5.932;2023-02-08T17:38:39;1.70;96.30
53653;DHT22;39553;52.954;5.932;2023-02-08T17:41:08;1.90;96.30
53653;DHT22;39553;52.954;5.932;2023-02-08T17:43:34;3.10;96.50
53653;DHT22;39553;52.954;5.932;2023-02-08T17:46:10;1.80;96.40
53653;DHT22;39553;52.954;5.932;2023-02-08T17:48:36;1.70;96.40
53653;DHT22;39553;52.954;5.932;2023-02-08T17:51:07;1.60;96.40
53653;DHT22;39553;52.954;5.932;2023-02-08T17:53:33;1.60;96.40
53653;DHT22;39553;52.954;5.932;2023-02-08T17:56:09;2.30;96.60
53653;DHT22;39553;52.954;5.932;2023-02-08T17:58:35;1.60;96.40
53653;DHT22;39553;52.954;5.932;2023-02-08T18:01:01;1.40;96.70
53653;DHT22;39553;52.954;5.932;2023-02-08T18:03:27;1.50;96.50
53653;DHT22;39553;52.954;5.932;2023-02-08T18:05:57;1.50;96.50
53653;DHT22;39553;52.954;5.932;2023-02-08T18:08:24;1.40;96.50
53653;DHT22;39553;52.954;5.932;2023-02-08T18:10:50;1.40;96.60
53653;DHT22;39553;52.954;5.932;2023-02-08T18:13:16;1.40;96.60
53653;DHT22;39553;52.954;5.932;2023-02-08T18:15:42;1.40;96.40
53653;DHT22;39553;52.954;5.932;2023-02-08T18:18:08;1.40;96.40
53653;DHT22;39553;52.954;5.932;2023-02-08T18:20:42;2.10;96.40
53653;DHT22;39553;52.954;5.932;2023-02-08T18:23:08;1.40;96.40